Pagrindinis puslapis
METAR-TAF:

METAR-TAF

Oro uostai :

Monbetsu, Japonija

platuma: 44-15N, ilguma: 143-32E, Aukštis: 6 m

Dabartinis oras

Ataskaita buvo paskelbta 39 minutes, ne 02:13 UTC
Vėjas 1 kt iš Šiaurės Vakarų
Temperatūra -4°C
Drėgmė 86%
Slėgis 1008 hPa
Matomumas: 2300 m
Mažai debesys ne aukštis 1000 ft
Išsisklaidę debesys ne aukštis 2000 ft
Su prošvaistėmis ne aukštis 3000 ft
sniegas

METAR: RJEB 200213Z 32001KT 2300 R32/2000N -SHSN FEW010 SCT020 BKN030 M04/M06 Q1008 RMK 2ST010 4CU020 7CU030 A2978

Laikas: 11:52 (02:52 UTC)


TAF: trūkstamas

Orai ataskaitas ir orų prognozės (METAR, TAF).

turimą stotys yra geltonos ir raudonos taškus žemėlapyje.

Perkelti pele per norėdami pamatyti stoties vardą.

Tada spustelėkite, norėdami matyti oro stebėjimo ir prognozės.

Norėdami pakeisti žemėlapį: spustelėkite ant žalios mygtukų su juodo kryžiaus žemyn,; žalią mygtuką su brūkšneliu, jei norite nutolinti; arba žalių rodyklių gretimoms žemėlapius.


METAR-TAF: